Time;durP1;ratioP1;P1;durP2;ratioP2;P2;SDS_P1;SDS_P2;PMS_P1;PMS_P2;Temp;Humidity;BMP_temperature;BMP_pressure;BME280_temperature;BME280_humidity;BME280_pressure;Samples;Min_cycle;Max_cycle;Signal;HPM_P1;HPM_P2
2022/12/02 00:00:26;;;;;;;6.53;4.80;;;;;;;3.32;100.00;100899.22;5028346;28;20456;-52
2022/12/02 00:02:55;;;;;;;1.70;1.60;;;;;;;3.21;100.00;100899.09;5031383;28;20525;-53
2022/12/02 00:05:30;;;;;;;2.20;2.10;;;;;;;3.21;100.00;100899.09;5031064;28;20482;-52
2022/12/02 00:07:58;;;;;;;3.17;2.87;;;;;;;3.14;100.00;100900.75;5031366;28;20446;-53
2022/12/02 00:10:31;;;;;;;1.90;1.07;;;;;;;3.01;100.00;100890.06;5030955;28;20995;-52
2022/12/02 00:13:26;;;;;;;4.97;2.37;;;;;;;2.98;100.00;100899.69;5031071;28;20455;-51
2022/12/02 00:16:02;;;;;;;7.90;3.10;;;;;;;2.83;100.00;100894.25;5023347;28;20495;-51
2022/12/02 00:18:30;;;;;;;3.90;1.37;;;;;;;2.67;100.00;100887.06;5030661;28;20491;-52
2022/12/02 00:20:56;;;;;;;1.30;1.10;;;;;;;2.72;100.00;100887.09;5030984;28;20466;-53
2022/12/02 00:23:23;;;;;;;2.97;2.43;;;;;;;2.58;100.00;100893.03;5030911;28;20451;-52
2022/12/02 00:25:52;;;;;;;2.50;2.30;;;;;;;2.64;100.00;100890.53;5030609;28;20533;-51
2022/12/02 00:28:19;;;;;;;2.50;2.30;;;;;;;2.55;100.00;100887.75;5030797;28;20509;-51
2022/12/02 00:30:45;;;;;;;1.63;1.63;;;;;;;2.48;100.00;100891.19;5026246;28;20460;-52
2022/12/02 00:33:11;;;;;;;2.67;1.80;;;;;;;2.51;100.00;100882.47;5031170;28;20451;-51
2022/12/02 00:35:38;;;;;;;2.03;1.57;;;;;;;2.47;100.00;100870.16;5030351;28;20498;-53
2022/12/02 00:38:05;;;;;;;5.43;2.23;;;;;;;2.38;100.00;100871.81;5030503;28;20502;-52
2022/12/02 00:40:31;;;;;;;2.40;2.30;;;;;;;2.24;100.00;100872.47;5030375;28;20451;-52
2022/12/02 00:46:30;;;;;;;0.73;0.73;;;;;;;2.28;100.00;100871.63;5030432;28;20473;-53
2022/12/02 00:48:33;;;;;;;4.03;2.10;;;;;;;2.18;100.00;100881.09;5030248;28;20505;-51
2022/12/02 00:50:59;;;;;;;5.80;2.93;;;;;;;2.14;100.00;100873.19;5030340;28;20455;-52
2022/12/02 00:53:25;;;;;;;2.00;1.83;;;;;;;2.16;100.00;100872.34;5031422;28;20965;-53
2022/12/02 00:55:52;;;;;;;7.90;1.03;;;;;;;2.17;100.00;100867.97;5029986;28;20486;-51
2022/12/02 00:58:18;;;;;;;10.60;2.13;;;;;;;2.11;100.00;100870.53;5030236;28;20504;-51
2022/12/02 01:00:45;;;;;;;15.83;2.23;;;;;;;2.15;100.00;100864.44;5030059;28;20464;-54
2022/12/02 01:03:11;;;;;;;1.43;1.33;;;;;;;2.12;100.00;100851.31;5026316;28;20459;-54
2022/12/02 01:05:38;;;;;;;6.60;1.20;;;;;;;2.00;100.00;100859.88;5029858;28;20475;-52
2022/12/02 01:08:05;;;;;;;0.80;0.80;;;;;;;2.00;100.00;100860.75;5029858;28;20451;-54
2022/12/02 01:10:31;;;;;;;2.03;1.83;;;;;;;2.09;100.00;100849.53;5029751;28;20517;-52
2022/12/02 01:12:58;;;;;;;1.77;1.67;;;;;;;2.04;100.00;100859.91;5029658;28;20838;-52
2022/12/02 01:15:25;;;;;;;1.80;1.50;;;;;;;2.24;100.00;100857.63;5029846;28;20502;-53
2022/12/02 01:17:51;;;;;;;2.00;1.60;;;;;;;2.01;100.00;100853.75;5029622;28;20494;-52
2022/12/02 01:20:18;;;;;;;1.30;1.10;;;;;;;1.97;100.00;100857.22;5028709;28;20452;-52
2022/12/02 01:22:44;;;;;;;5.13;1.80;;;;;;;1.97;100.00;100849.34;5030072;28;20451;-53
2022/12/02 01:25:10;;;;;;;3.17;1.60;;;;;;;2.00;100.00;100854.63;5029475;28;20828;-51
2022/12/02 01:27:37;;;;;;;6.30;2.30;;;;;;;2.03;100.00;100850.28;5029689;28;20501;-51
2022/12/02 01:30:03;;;;;;;2.27;2.17;;;;;;;2.08;100.00;100858.25;5029519;28;20451;-52
2022/12/02 01:32:30;;;;;;;0.87;0.87;;;;;;;2.16;100.00;100851.38;5028207;28;20459;-53
2022/12/02 01:34:56;;;;;;;2.00;1.90;;;;;;;2.24;100.00;100851.47;5029293;28;20456;-52
2022/12/02 01:37:23;;;;;;;4.37;1.73;;;;;;;2.25;100.00;100846.25;5029196;28;20458;-54
2022/12/02 01:39:49;;;;;;;3.57;0.83;;;;;;;2.50;100.00;100852.72;5029549;28;20459;-54
2022/12/02 01:42:16;;;;;;;13.13;2.47;;;;;;;2.37;100.00;100853.41;5028342;28;20459;-52
2022/12/02 01:44:42;;;;;;;2.20;2.10;;;;;;;2.54;100.00;100846.66;5029276;28;20451;-52
2022/12/02 01:47:09;;;;;;;2.23;1.37;;;;;;;2.54;100.00;100853.63;5029095;28;20516;-51
2022/12/02 01:49:35;;;;;;;3.17;2.63;;;;;;;2.47;100.00;100850.06;5029151;28;20455;-51
2022/12/02 01:52:02;;;;;;;7.77;2.40;;;;;;;2.71;100.00;100852.09;5028986;28;20598;-52
2022/12/02 01:54:29;;;;;;;1.93;1.30;;;;;;;2.75;100.00;100853.94;5029353;28;20451;-52
2022/12/02 01:56:55;;;;;;;23.03;3.23;;;;;;;2.61;100.00;100848.50;5029283;28;20842;-51
2022/12/02 01:59:23;;;;;;;5.97;3.90;;;;;;;2.65;100.00;100852.91;5029034;28;20495;-52
2022/12/02 02:01:49;;;;;;;1.70;1.50;;;;;;;2.70;100.00;100852.09;5028837;28;20451;-51
2022/12/02 02:04:17;;;;;;;1.53;1.47;;;;;;;2.90;100.00;100840.97;5028496;28;20455;-54
2022/12/02 02:06:45;;;;;;;5.00;1.57;;;;;;;3.18;100.00;100849.16;5029247;28;20507;-52
2022/12/02 02:09:13;;;;;;;4.00;2.93;;;;;;;3.02;100.00;100850.72;5028992;28;20812;-51
2022/12/02 02:11:40;;;;;;;2.23;2.03;;;;;;;2.99;100.00;100850.69;5028981;28;20554;-51
2022/12/02 02:14:10;;;;;;;1.47;1.23;;;;;;;3.04;100.00;100853.38;5028887;28;20510;-51
2022/12/02 02:16:38;;;;;;;12.80;1.80;;;;;;;3.05;100.00;100848.13;5060437;28;20475;-52
2022/12/02 02:19:09;;;;;;;4.93;1.17;;;;;;;3.11;100.00;100850.81;5028512;28;20491;-52
2022/12/02 02:21:41;;;;;;;3.43;2.07;;;;;;;2.87;100.00;100847.91;5029005;28;20454;-52
2022/12/02 02:24:07;;;;;;;3.67;3.47;;;;;;;3.03;100.00;100839.38;5028836;28;20448;-52
2022/12/02 02:26:34;;;;;;;2.63;2.33;;;;;;;3.10;100.00;100850.81;5028660;28;20842;-51
2022/12/02 02:29:01;;;;;;;2.57;2.00;;;;;;;3.09;100.00;100851.66;5028737;28;20452;-51
2022/12/02 02:31:27;;;;;;;1.80;1.67;;;;;;;3.03;100.00;100833.22;5028611;28;20832;-55
2022/12/02 02:33:54;;;;;;;4.87;3.83;;;;;;;3.08;100.00;100837.66;5028535;28;20451;-51
2022/12/02 02:36:20;;;;;;;1.83;1.73;;;;;;;3.21;100.00;100839.53;5029303;28;20495;-54
2022/12/02 02:38:48;;;;;;;5.23;2.40;;;;;;;3.32;100.00;100837.03;5028659;28;20511;-53
2022/12/02 02:41:14;;;;;;;7.27;3.17;;;;;;;3.31;100.00;100834.41;5028958;28;20465;-53
2022/12/02 02:43:41;;;;;;;2.97;2.70;;;;;;;3.38;100.00;100836.19;5028504;28;20514;-54
2022/12/02 02:46:08;;;;;;;1.50;1.40;;;;;;;3.48;100.00;100827.53;5028308;28;20525;-54
2022/12/02 02:48:35;;;;;;;5.50;1.83;;;;;;;3.73;100.00;100823.38;5028494;28;20567;-53
2022/12/02 02:51:02;;;;;;;7.13;2.03;;;;;;;3.76;100.00;100828.66;5028756;28;20509;-53
2022/12/02 02:53:29;;;;;;;7.43;3.00;;;;;;;3.61;100.00;100829.41;5028459;28;21032;-54
2022/12/02 02:55:55;;;;;;;2.30;2.20;;;;;;;3.84;100.00;100825.22;5028692;28;20468;-53
2022/12/02 02:58:25;;;;;;;3.07;2.87;;;;;;;3.65;100.00;100823.28;5028470;28;20487;-53
2022/12/02 03:01:01;;;;;;;3.30;3.00;;;;;;;3.65;100.00;100815.41;5028297;28;20462;-54
2022/12/02 03:03:34;;;;;;;1.23;1.13;;;;;;;3.70;100.00;100818.06;5028613;28;20452;-54
2022/12/02 03:06:04;;;;;;;15.43;6.07;;;;;;;3.66;100.00;100816.28;5028655;28;20468;-53
2022/12/02 03:08:31;;;;;;;2.30;2.20;;;;;;;3.70;100.00;100815.44;5028556;28;20452;-54
2022/12/02 03:10:59;;;;;;;2.20;1.07;;;;;;;3.72;100.00;100819.00;5060300;28;20462;-53
2022/12/02 03:13:28;;;;;;;3.60;3.30;;;;;;;3.73;100.00;100810.22;5028266;28;20514;-54
2022/12/02 03:15:55;;;;;;;7.67;4.77;;;;;;;3.74;100.00;100807.59;5030935;28;20478;-53
2022/12/02 03:18:21;;;;;;;3.80;3.60;;;;;;;3.69;100.00;100806.66;5032043;28;20487;-53
2022/12/02 03:20:48;;;;;;;7.53;3.67;;;;;;;3.86;100.00;100802.44;5031800;28;20459;-54
2022/12/02 03:23:15;;;;;;;5.83;4.40;;;;;;;4.02;100.00;100799.91;5031885;28;20455;-54
2022/12/02 03:25:42;;;;;;;3.53;2.50;;;;;;;3.94;100.00;100801.59;5031604;28;21051;-54
2022/12/02 03:28:10;;;;;;;3.30;2.90;;;;;;;3.92;100.00;100798.97;5031718;28;20791;-54
2022/12/02 03:30:38;;;;;;;6.60;4.83;;;;;;;3.93;100.00;100803.34;5031779;28;20462;-54
2022/12/02 03:33:05;;;;;;;6.33;5.53;;;;;;;3.89;100.00;100798.94;5031842;28;20546;-53
2022/12/02 03:35:31;;;;;;;3.03;2.60;;;;;;;3.77;100.00;100801.47;5031382;28;20525;-53
2022/12/02 03:37:58;;;;;;;2.93;2.30;;;;;;;3.78;100.00;100795.34;5031561;28;20509;-53
2022/12/02 03:40:25;;;;;;;5.63;4.70;;;;;;;3.86;100.00;100799.81;5031352;28;20460;-54
2022/12/02 03:42:51;;;;;;;3.33;1.93;;;;;;;3.97;100.00;100794.59;5031498;28;20458;-54
2022/12/02 03:45:18;;;;;;;2.70;2.50;;;;;;;4.20;100.00;100786.84;5031400;28;20475;-53
2022/12/02 03:47:45;;;;;;;4.50;4.20;;;;;;;4.11;100.00;100789.41;5031555;28;20514;-54
2022/12/02 03:50:11;;;;;;;3.70;3.40;;;;;;;4.04;100.00;100785.88;5031835;28;20451;-53
2022/12/02 03:52:39;;;;;;;21.23;4.83;;;;;;;3.71;100.00;100778.69;5031826;28;20926;-53
2022/12/02 03:55:06;;;;;;;9.80;5.13;;;;;;;3.74;100.00;100773.44;5031646;28;20479;-53
2022/12/02 03:57:33;;;;;;;3.30;2.17;;;;;;;3.88;100.00;100781.41;5031242;28;20455;-53
2022/12/02 04:00:00;;;;;;;6.23;5.50;;;;;;;3.92;100.00;100777.03;5031438;28;20946;-53
2022/12/02 04:02:27;;;;;;;3.20;3.10;;;;;;;3.90;100.00;100779.66;5030996;28;21015;-53
2022/12/02 04:04:53;;;;;;;3.93;3.67;;;;;;;3.90;100.00;100779.66;5031304;28;20829;-53
2022/12/02 04:07:19;;;;;;;1.53;1.43;;;;;;;3.93;100.00;100778.78;5031091;28;20932;-54
2022/12/02 04:09:46;;;;;;;4.50;2.20;;;;;;;4.06;100.00;100772.75;5030857;28;21017;-53
2022/12/02 04:12:12;;;;;;;10.90;4.07;;;;;;;4.16;100.00;100761.41;5031225;28;20456;-54
2022/12/02 04:14:38;;;;;;;15.10;3.20;;;;;;;4.58;100.00;100751.94;5030884;28;20517;-54
2022/12/02 04:17:05;;;;;;;2.80;2.60;;;;;;;4.30;100.00;100748.31;5030971;28;20835;-54
2022/12/02 04:19:33;;;;;;;6.60;6.10;;;;;;;4.13;100.00;100754.38;5030914;28;20491;-53
2022/12/02 04:22:00;;;;;;;4.77;4.23;;;;;;;4.07;100.00;100748.19;5030810;28;20494;-54
2022/12/02 04:24:27;;;;;;;12.57;5.33;;;;;;;4.14;100.00;100752.63;5031593;28;20459;-54
2022/12/02 04:26:54;;;;;;;7.10;3.20;;;;;;;4.17;100.00;100752.63;5031405;28;20533;-54
2022/12/02 04:29:21;;;;;;;3.27;2.43;;;;;;;4.22;100.00;100747.38;5031876;28;20452;-54
2022/12/02 04:31:47;;;;;;;5.37;4.90;;;;;;;4.29;100.00;100742.19;5031794;28;20460;-54
2022/12/02 04:34:13;;;;;;;5.77;2.90;;;;;;;4.39;100.00;100736.09;5031667;28;20508;-54
2022/12/02 04:36:40;;;;;;;5.17;2.63;;;;;;;4.45;100.00;100738.72;5031287;28;20541;-54
2022/12/02 04:39:06;;;;;;;3.43;3.13;;;;;;;4.49;100.00;100736.97;5030240;28;20491;-55
2022/12/02 04:41:32;;;;;;;3.13;2.13;;;;;;;4.36;100.00;100735.16;5031120;28;20455;-54
2022/12/02 04:43:59;;;;;;;6.27;4.43;;;;;;;4.27;100.00;100733.41;5031354;28;20505;-54
2022/12/02 04:46:25;;;;;;;4.17;3.77;;;;;;;4.29;100.00;100733.41;5031280;28;20471;-54
2022/12/02 04:48:52;;;;;;;9.47;4.30;;;;;;;4.33;100.00;100730.78;5031048;28;20448;-54
2022/12/02 04:51:18;;;;;;;6.30;3.20;;;;;;;4.02;100.00;100729.78;5030789;28;20886;-54
2022/12/02 04:53:44;;;;;;;6.47;3.93;;;;;;;4.17;100.00;100728.97;5031340;28;21120;-54
2022/12/02 04:56:11;;;;;;;8.70;6.23;;;;;;;4.20;100.00;100723.72;5031452;28;20467;-54
2022/12/02 04:58:38;;;;;;;3.80;3.10;;;;;;;4.33;100.00;100722.88;5030375;28;20867;-54
2022/12/02 05:01:04;;;;;;;11.83;4.00;;;;;;;4.47;100.00;100718.53;5029786;28;20456;-54
2022/12/02 05:03:31;;;;;;;4.87;4.40;;;;;;;4.52;100.00;100721.19;5029923;28;20455;-53
2022/12/02 05:05:57;;;;;;;7.73;2.90;;;;;;;4.43;100.00;100722.06;5030242;28;20479;-54
2022/12/02 05:08:24;;;;;;;3.87;2.87;;;;;;;4.30;100.00;100720.25;5030198;28;20482;-53
2022/12/02 05:10:50;;;;;;;3.13;2.60;;;;;;;4.24;100.00;100719.31;5029875;28;20952;-54
2022/12/02 05:13:17;;;;;;;2.73;1.73;;;;;;;4.27;100.00;100717.63;5029912;28;20452;-54
2022/12/02 05:15:43;;;;;;;3.23;3.13;;;;;;;4.39;100.00;100712.41;5029661;28;20479;-54
2022/12/02 05:18:09;;;;;;;1.50;1.40;;;;;;;4.45;100.00;100712.41;5029875;28;20940;-54
2022/12/02 05:20:36;;;;;;;4.03;3.83;;;;;;;4.48;100.00;100714.16;5029879;28;20456;-53
2022/12/02 05:23:02;;;;;;;2.80;2.30;;;;;;;4.47;100.00;100708.00;5029768;28;20886;-53
2022/12/02 05:25:29;;;;;;;4.63;4.07;;;;;;;4.45;100.00;100706.25;5030360;28;20472;-54
2022/12/02 05:27:55;;;;;;;10.40;2.60;;;;;;;4.44;100.00;100704.50;5029957;28;21015;-54
2022/12/02 05:30:22;;;;;;;7.30;6.53;;;;;;;4.33;100.00;100704.47;5029924;28;20486;-54
2022/12/02 05:32:48;;;;;;;23.27;4.70;;;;;;;4.45;100.00;100703.63;5029546;28;20455;-54
2022/12/02 05:35:15;;;;;;;3.13;2.93;;;;;;;4.93;100.00;100701.94;5029822;28;20863;-54
2022/12/02 05:37:41;;;;;;;7.93;3.10;;;;;;;4.62;100.00;100703.66;5029151;28;20452;-54
2022/12/02 05:40:09;;;;;;;7.27;6.47;;;;;;;4.63;100.00;100701.03;5029050;28;20495;-54
2022/12/02 05:42:35;;;;;;;8.63;3.50;;;;;;;4.57;100.00;100703.66;5029288;28;20973;-53
2022/12/02 05:45:13;;;;;;;3.50;2.87;;;;;;;4.57;100.00;100702.78;5029122;28;20900;-54
2022/12/02 05:47:39;;;;;;;6.60;3.43;;;;;;;4.52;100.00;100704.50;5029389;28;20455;-54
2022/12/02 05:50:10;;;;;;;3.63;3.33;;;;;;;4.50;100.00;100701.00;5029240;28;20444;-53
2022/12/02 05:52:37;;;;;;;7.13;1.90;;;;;;;4.55;100.00;100704.53;5029162;28;20952;-54
2022/12/02 05:55:12;;;;;;;2.37;2.27;;;;;;;4.51;100.00;100702.75;5028825;28;20471;-54
2022/12/02 05:57:38;;;;;;;4.83;2.63;;;;;;;4.57;100.00;100702.78;5029347;28;20469;-54
2022/12/02 06:00:18;;;;;;;2.27;2.07;;;;;;;4.56;100.00;100704.53;5029286;28;20483;-54
2022/12/02 06:02:49;;;;;;;4.27;3.63;;;;;;;4.65;100.00;100704.53;5029176;28;21100;-54
2022/12/02 06:05:35;;;;;;;5.00;4.07;;;;;;;4.57;100.00;100701.03;5029246;28;20475;-54
2022/12/02 06:08:18;;;;;;;12.10;2.40;;;;;;;4.65;100.00;100703.66;5029515;28;20983;-53
2022/12/02 06:10:52;;;;;;;4.63;4.27;;;;;;;4.68;100.00;100703.69;5029108;28;20448;-54
2022/12/02 06:13:27;;;;;;;5.53;3.03;;;;;;;4.67;100.00;100707.22;5028697;28;20955;-53
2022/12/02 06:15:54;;;;;;;5.30;4.90;;;;;;;4.71;100.00;100712.47;5028800;28;20980;-54
2022/12/02 06:18:26;;;;;;;4.70;3.60;;;;;;;4.67;100.00;100705.44;5029031;28;20459;-53
2022/12/02 06:20:56;;;;;;;15.03;5.40;;;;;;;4.72;100.00;100703.69;5028621;28;20459;-54
2022/12/02 06:23:26;;;;;;;7.23;5.13;;;;;;;4.73;100.00;100704.56;5029116;28;20454;-53
2022/12/02 06:25:53;;;;;;;4.50;2.47;;;;;;;4.72;100.00;100705.44;5029094;28;20988;-54
2022/12/02 06:28:29;;;;;;;2.67;2.20;;;;;;;4.77;100.00;100703.69;5029003;28;20463;-53
2022/12/02 06:30:59;;;;;;;9.57;3.40;;;;;;;4.87;100.00;100704.59;5028675;28;20457;-53
2022/12/02 06:33:35;;;;;;;7.43;4.10;;;;;;;4.88;100.00;100711.63;5028572;28;20941;-54
2022/12/02 06:36:03;;;;;;;11.67;4.30;;;;;;;4.85;100.00;100703.72;5028740;28;20483;-53
2022/12/02 06:38:37;;;;;;;4.70;4.03;;;;;;;4.82;100.00;100701.09;5028762;28;20458;-54
2022/12/02 06:41:36;;;;;;;9.57;5.30;;;;;;;4.87;100.00;100705.47;5017071;28;20447;-54
2022/12/02 06:47:31;;;;;;;4.40;3.90;;;;;;;5.13;100.00;100709.88;5028628;28;20479;-53
2022/12/02 06:50:04;;;;;;;10.10;5.87;;;;;;;5.15;100.00;100705.50;5029898;28;20447;-53
2022/12/02 06:52:37;;;;;;;7.13;4.70;;;;;;;5.18;100.00;100703.72;5032798;28;20505;-53
2022/12/02 06:55:24;;;;;;;25.17;4.63;;;;;;;5.25;100.00;100699.34;5032918;28;20940;-53
2022/12/02 06:57:51;;;;;;;4.53;4.30;;;;;;;5.23;100.00;100707.25;5032790;28;20501;-54
2022/12/02 07:00:17;;;;;;;6.40;5.90;;;;;;;5.20;100.00;100703.72;5030800;28;20487;-53
2022/12/02 07:02:44;;;;;;;6.70;6.20;;;;;;;5.24;100.00;100702.88;5032431;28;20460;-54
2022/12/02 07:05:19;;;;;;;8.10;4.50;;;;;;;5.25;100.00;100702.84;5031121;28;20863;-53
2022/12/02 07:07:46;;;;;;;16.63;4.97;;;;;;;5.25;100.00;100708.13;5032560;28;20447;-54
2022/12/02 07:10:28;;;;;;;12.17;3.60;;;;;;;5.24;100.00;100708.13;5032565;28;21025;-53
2022/12/02 07:12:57;;;;;;;9.47;5.07;;;;;;;5.19;100.00;100705.47;5032101;28;20462;-54
2022/12/02 07:15:25;;;;;;;6.37;5.00;;;;;;;4.96;100.00;100707.25;5032221;28;20540;-54
2022/12/02 07:17:56;;;;;;;5.40;5.00;;;;;;;5.23;100.00;100701.09;5032525;28;20456;-54
2022/12/02 07:20:31;;;;;;;9.90;4.30;;;;;;;5.20;100.00;100701.97;5032326;28;20838;-53
2022/12/02 07:22:59;;;;;;;7.10;5.13;;;;;;;5.16;100.00;100700.22;5032120;28;20960;-54
2022/12/02 07:25:34;;;;;;;5.50;5.07;;;;;;;5.03;100.00;100703.72;5032231;28;20472;-53
2022/12/02 07:28:14;;;;;;;11.40;5.10;;;;;;;4.93;100.00;100692.28;5020685;28;20457;-54
2022/12/02 07:30:41;;;;;;;15.23;5.43;;;;;;;4.88;100.00;100696.69;5032432;28;20949;-54
2022/12/02 07:33:08;;;;;;;5.53;5.03;;;;;;;4.97;100.00;100696.72;5032587;28;20455;-53
2022/12/02 07:35:34;;;;;;;5.37;3.33;;;;;;;4.96;100.00;100696.72;5032213;28;20483;-54
2022/12/02 07:38:01;;;;;;;6.87;6.33;;;;;;;5.06;100.00;100693.19;5032403;28;20451;-54
2022/12/02 07:40:27;;;;;;;15.63;5.60;;;;;;;4.96;100.00;100694.94;5032425;28;20498;-53
2022/12/02 07:42:54;;;;;;;14.83;8.10;;;;;;;5.21;100.00;100690.56;5032597;28;20448;-53
2022/12/02 07:45:20;;;;;;;12.37;7.00;;;;;;;4.83;100.00;100698.44;5032386;28;20545;-53
2022/12/02 07:47:46;;;;;;;4.67;4.30;;;;;;;4.99;100.00;100692.31;5032280;28;20867;-54
2022/12/02 07:50:15;;;;;;;8.47;6.00;;;;;;;5.06;100.00;100687.91;5063994;28;20957;-53
2022/12/02 07:52:41;;;;;;;4.37;3.20;;;;;;;4.99;100.00;100694.94;5032399;28;20456;-53
2022/12/02 07:55:08;;;;;;;6.70;4.40;;;;;;;4.99;100.00;100692.31;5032313;28;20471;-54
2022/12/02 07:57:35;;;;;;;4.50;4.07;;;;;;;4.83;100.00;100687.91;5032384;28;20461;-53
2022/12/02 08:00:05;;;;;;;10.33;4.60;;;;;;;4.59;100.00;100687.88;5032544;28;20495;-53
2022/12/02 08:02:31;;;;;;;19.13;2.80;;;;;;;4.93;100.00;100688.78;5031074;28;20456;-53
2022/12/02 08:04:58;;;;;;;10.77;4.30;;;;;;;4.85;100.00;100691.44;5031688;28;20472;-54
2022/12/02 08:07:24;;;;;;;7.87;3.63;;;;;;;4.84;100.00;100687.03;5031755;28;20877;-53
2022/12/02 08:09:51;;;;;;;6.30;4.67;;;;;;;5.00;100.00;100690.56;5031531;28;20452;-54
2022/12/02 08:12:17;;;;;;;13.67;4.00;;;;;;;5.06;100.00;100683.53;5031793;28;20515;-53
2022/12/02 08:14:44;;;;;;;4.90;3.93;;;;;;;5.23;100.00;100686.19;5031193;28;20452;-54
2022/12/02 08:17:10;;;;;;;15.53;6.30;;;;;;;5.14;100.00;100690.56;5030051;28;20456;-53
2022/12/02 08:19:36;;;;;;;7.43;5.13;;;;;;;5.20;100.00;100694.06;5031275;28;20494;-53
2022/12/02 08:22:03;;;;;;;6.50;3.40;;;;;;;5.21;100.00;100693.22;5031264;28;20513;-53
2022/12/02 08:24:29;;;;;;;3.30;2.90;;;;;;;5.24;100.00;100695.84;5031084;28;20921;-54
2022/12/02 08:26:55;;;;;;;5.47;3.37;;;;;;;5.09;100.00;100697.59;5031155;28;20471;-54
2022/12/02 08:29:22;;;;;;;8.73;3.80;;;;;;;4.84;100.00;100694.06;5031343;28;20452;-54
2022/12/02 08:31:48;;;;;;;2.67;1.50;;;;;;;5.00;100.00;100694.06;5031062;28;20455;-54
2022/12/02 08:34:15;;;;;;;20.40;5.63;;;;;;;4.90;100.00;100692.28;5030812;28;20448;-53
2022/12/02 08:36:41;;;;;;;3.77;3.00;;;;;;;5.09;100.00;100690.56;5031208;28;20483;-52
2022/12/02 08:39:08;;;;;;;10.27;3.63;;;;;;;5.01;100.00;100687.91;5030537;28;20803;-53
2022/12/02 08:41:36;;;;;;;7.93;3.67;;;;;;;5.06;100.00;100698.44;5030736;28;21022;-52
2022/12/02 08:44:03;;;;;;;11.17;5.20;;;;;;;5.08;100.00;100693.22;5030516;28;20470;-53
2022/12/02 08:46:30;;;;;;;4.33;3.73;;;;;;;4.90;100.00;100692.28;5030130;28;20475;-52
2022/12/02 08:48:57;;;;;;;3.00;2.80;;;;;;;4.80;100.00;100697.53;5029839;28;20505;-52
2022/12/02 08:51:24;;;;;;;14.17;3.70;;;;;;;4.83;100.00;100698.44;5030431;28;20444;-53
2022/12/02 08:53:51;;;;;;;8.80;2.53;;;;;;;4.64;100.00;100691.38;5030122;28;20455;-51
2022/12/02 08:56:17;;;;;;;9.73;3.13;;;;;;;4.99;100.00;100689.69;5030085;28;21011;-51
2022/12/02 08:58:44;;;;;;;8.77;4.90;;;;;;;5.04;100.00;100693.19;5029998;28;20960;-53
2022/12/02 09:01:10;;;;;;;8.93;4.00;;;;;;;4.96;100.00;100696.72;5029634;28;20598;-54
2022/12/02 09:03:37;;;;;;;9.93;7.00;;;;;;;4.98;100.00;100694.94;5030209;28;20452;-54
2022/12/02 09:06:03;;;;;;;10.37;4.30;;;;;;;5.01;100.00;100698.47;5029825;28;20479;-52
2022/12/02 09:08:30;;;;;;;4.73;4.43;;;;;;;4.77;100.00;100690.53;5030052;28;20469;-53
2022/12/02 09:10:57;;;;;;;5.10;4.20;;;;;;;4.84;100.00;100684.41;5029899;28;20945;-52
2022/12/02 09:13:24;;;;;;;5.07;3.37;;;;;;;4.93;100.00;100689.66;5029703;28;20494;-52
2022/12/02 09:15:50;;;;;;;2.23;2.03;;;;;;;4.85;100.00;100691.44;5029630;28;20538;-51
2022/12/02 09:18:17;;;;;;;6.93;2.67;;;;;;;4.99;100.00;100694.94;5016871;28;20505;-52
2022/12/02 09:20:43;;;;;;;4.23;3.93;;;;;;;4.91;100.00;100694.06;5029771;28;20549;-52
2022/12/02 09:23:09;;;;;;;11.67;2.63;;;;;;;4.85;100.00;100694.06;5029634;28;20948;-52
2022/12/02 09:25:36;;;;;;;4.13;3.53;;;;;;;4.85;100.00;100687.91;5029425;28;20471;-53
2022/12/02 09:28:02;;;;;;;3.90;1.83;;;;;;;4.71;100.00;100694.03;5029904;28;20866;-53
2022/12/02 09:30:29;;;;;;;4.03;3.27;;;;;;;4.80;100.00;100694.91;5029329;28;20502;-52
2022/12/02 09:32:55;;;;;;;3.80;3.47;;;;;;;4.63;100.00;100694.88;5029679;28;20455;-52
2022/12/02 09:35:21;;;;;;;3.77;3.03;;;;;;;4.34;100.00;100693.06;5029366;28;20958;-54
2022/12/02 09:37:48;;;;;;;5.67;2.73;;;;;;;4.32;100.00;100691.31;5029521;28;20483;-51
2022/12/02 09:40:15;;;;;;;8.37;3.33;;;;;;;4.47;100.00;100689.59;5029340;28;20931;-52
2022/12/02 09:42:41;;;;;;;7.27;3.83;;;;;;;4.42;100.00;100685.19;5029431;28;20486;-52
2022/12/02 09:45:08;;;;;;;7.60;1.47;;;;;;;4.32;100.00;100689.56;5029128;28;20472;-52
2022/12/02 09:47:35;;;;;;;4.00;2.87;;;;;;;4.41;100.00;100686.09;5029532;28;20475;-53
2022/12/02 09:50:02;;;;;;;4.23;2.73;;;;;;;4.61;100.00;100686.13;5061135;28;20451;-52
2022/12/02 09:52:29;;;;;;;10.13;3.43;;;;;;;4.56;100.00;100688.75;5028206;28;20478;-53
2022/12/02 09:54:56;;;;;;;4.27;3.13;;;;;;;4.48;100.00;100682.56;5029275;28;20506;-53
2022/12/02 09:57:29;;;;;;;1.23;1.13;;;;;;;4.55;100.00;100680.84;5029618;28;20877;-53
2022/12/02 10:00:02;;;;;;;1.77;1.67;;;;;;;4.70;100.00;100676.50;5029173;28;20487;-53
2022/12/02 10:02:43;;;;;;;2.20;1.90;;;;;;;4.69;100.00;100690.53;5029154;28;20459;-53
2022/12/02 10:05:21;;;;;;;1.50;1.47;;;;;;;4.66;100.00;100684.34;5029040;28;20554;-52
2022/12/02 10:07:50;;;;;;;5.43;3.87;;;;;;;4.54;100.00;100681.72;5028799;28;20449;-52
2022/12/02 10:10:23;;;;;;;3.33;2.47;;;;;;;4.46;100.00;100681.69;5029179;28;20451;-52
2022/12/02 10:12:49;;;;;;;1.57;1.47;;;;;;;4.43;100.00;100682.56;5028983;28;20452;-51
2022/12/02 10:15:20;;;;;;;1.33;0.80;;;;;;;4.62;100.00;100682.59;5029051;28;20475;-53
2022/12/02 10:17:47;;;;;;;3.83;2.50;;;;;;;4.22;100.00;100671.09;5028868;28;20459;-51
2022/12/02 10:20:20;;;;;;;5.60;4.17;;;;;;;4.53;100.00;100672.97;5028807;28;20491;-53
2022/12/02 10:23:05;;;;;;;2.57;2.37;;;;;;;4.67;100.00;100675.63;5029154;28;20856;-52
2022/12/02 10:25:31;;;;;;;5.63;2.20;;;;;;;4.70;100.00;100668.59;5033747;28;20984;-51
2022/12/02 10:27:58;;;;;;;1.23;1.20;;;;;;;4.53;100.00;100666.81;5035632;28;20455;-51
2022/12/02 10:30:26;;;;;;;1.63;1.40;;;;;;;4.35;100.00;100663.25;5035325;28;20451;-51
2022/12/02 10:33:00;;;;;;;1.60;1.50;;;;;;;4.48;100.00;100672.03;5022255;28;20501;-52
2022/12/02 10:35:41;;;;;;;2.83;1.37;;;;;;;4.12;100.00;100665.81;5035277;28;20478;-52
2022/12/02 10:38:28;;;;;;;1.33;1.30;;;;;;;4.35;100.00;100668.50;5035255;28;20458;-52
2022/12/02 10:41:14;;;;;;;0.30;0.30;;;;;;;4.21;100.00;100664.94;5022414;28;20552;-52
2022/12/02 10:43:42;;;;;;;1.40;1.30;;;;;;;4.23;100.00;100657.06;5035231;28;20451;-52
2022/12/02 10:46:13;;;;;;;0.93;0.80;;;;;;;4.46;100.00;100653.63;5035379;28;20848;-53
2022/12/02 10:48:40;;;;;;;1.80;1.43;;;;;;;4.45;100.00;100651.88;5035412;28;20486;-52
2022/12/02 10:51:13;;;;;;;1.17;1.07;;;;;;;4.67;100.00;100655.44;5035311;28;20447;-52
2022/12/02 10:53:41;;;;;;;5.80;1.87;;;;;;;4.58;100.00;100650.13;5035128;28;20473;-51
2022/12/02 10:56:22;;;;;;;6.63;1.10;;;;;;;4.45;100.00;100651.88;5034952;28;21054;-52
2022/12/02 10:58:50;;;;;;;2.10;0.87;;;;;;;4.24;100.00;100649.16;5022629;28;20451;-51
2022/12/02 11:01:19;;;;;;;2.53;2.40;;;;;;;4.05;100.00;100642.97;5034931;28;20490;-52
2022/12/02 11:03:46;;;;;;;3.90;1.07;;;;;;;4.27;100.00;100638.69;5035016;28;20534;-50
2022/12/02 11:06:19;;;;;;;0.83;0.83;;;;;;;4.15;100.00;100636.88;5034924;28;20478;-52
2022/12/02 11:08:47;;;;;;;2.40;2.20;;;;;;;4.28;100.00;100642.19;5035784;28;20451;-52
2022/12/02 11:11:33;;;;;;;1.37;1.37;;;;;;;4.35;100.00;100639.56;5035103;28;20455;-51
2022/12/02 11:14:05;;;;;;;1.20;0.93;;;;;;;4.34;100.00;100636.94;5035273;28;20447;-53
2022/12/02 11:16:31;;;;;;;2.70;2.13;;;;;;;3.92;100.00;100635.03;5034790;28;20474;-52
2022/12/02 11:19:32;;;;;;;0.80;0.80;;;;;;;3.94;100.00;100634.16;5034913;28;20452;-54
2022/12/02 11:21:59;;;;;;;0.63;0.63;;;;;;;3.87;100.00;100621.88;5026125;28;20490;-53
2022/12/02 11:24:33;;;;;;;0.40;0.40;;;;;;;3.97;100.00;100622.78;5035027;28;20486;-53
2022/12/02 11:27:03;;;;;;;2.77;1.57;;;;;;;4.04;100.00;100624.56;5034778;28;20528;-53
2022/12/02 11:30:01;;;;;;;2.40;1.03;;;;;;;3.84;100.00;100616.63;5035085;28;20447;-51
2022/12/02 11:32:28;;;;;;;1.60;1.10;;;;;;;3.91;100.00;100607.88;5035141;28;20451;-52
2022/12/02 11:34:54;;;;;;;1.17;1.10;;;;;;;4.00;100.00;100614.94;5034941;28;20516;-51
2022/12/02 11:37:46;;;;;;;2.00;1.90;;;;;;;3.95;100.00;100606.13;5018707;28;20610;-51